Time;durP1;ratioP1;P1;durP2;ratioP2;P2;SDS_P1;SDS_P2;PMS_P1;PMS_P2;Temp;Humidity;BMP_temperature;BMP_pressure;BME280_temperature;BME280_humidity;BME280_pressure;Samples;Min_cycle;Max_cycle;Signal;HPM_P1;HPM_P2
2023/01/02 00:00:42;;;;;;;4.43;3.15;;;;;;;;;;5033738;28;20057;-73
2023/01/02 00:03:09;;;;;;;4.60;3.22;;;;;;;;;;5034290;28;20051;-73
2023/01/02 00:05:37;;;;;;;4.20;2.90;;;;;;;;;;5022151;28;20061;-73
2023/01/02 00:08:05;;;;;;;5.60;3.17;;;;;;;;;;5013530;28;20060;-73
2023/01/02 00:10:32;;;;;;;3.83;2.67;;;;;;;;;;5013844;28;20056;-73
2023/01/02 00:12:59;;;;;;;4.60;2.80;;;;;;;;;;5018651;28;20064;-73
2023/01/02 00:15:26;;;;;;;3.67;2.83;;;;;;;;;;5033456;28;20068;-73
2023/01/02 00:17:53;;;;;;;4.00;2.70;;;;;;;;;;5034265;28;20071;-73
2023/01/02 00:20:20;;;;;;;3.63;2.58;;;;;;;;;;5022435;28;20054;-73
2023/01/02 00:22:47;;;;;;;4.07;2.88;;;;;;;;;;5014268;28;20052;-73
2023/01/02 00:25:16;;;;;;;3.78;2.47;;;;;;;;;;5013612;28;20057;-73
2023/01/02 00:27:43;;;;;;;5.15;3.20;;;;;;;;;;5013115;28;20509;-73
2023/01/02 00:30:11;;;;;;;3.17;2.40;;;;;;;;;;5013116;28;20057;-73
2023/01/02 00:32:38;;;;;;;3.53;2.65;;;;;;;;;;5013190;28;20060;-73
2023/01/02 00:35:06;;;;;;;3.90;2.67;;;;;;;;;;5029430;28;20140;-73
2023/01/02 00:37:33;;;;;;;4.75;2.90;;;;;;;;;;5032915;28;20409;-73
2023/01/02 00:40:00;;;;;;;4.88;2.65;;;;;;;;;;5033759;28;20433;-72
2023/01/02 00:42:28;;;;;;;3.50;2.60;;;;;;;;;;5033803;28;20520;-73
2023/01/02 00:44:55;;;;;;;3.95;2.67;;;;;;;;;;5032792;28;20083;-73
2023/01/02 00:47:22;;;;;;;3.97;2.85;;;;;;;;;;5032659;28;20405;-73
2023/01/02 00:49:49;;;;;;;3.22;2.60;;;;;;;;;;5031910;28;20425;-73
2023/01/02 00:52:16;;;;;;;3.92;2.70;;;;;;;;;;5033466;28;20497;-73
2023/01/02 00:54:44;;;;;;;3.78;2.80;;;;;;;;;;5033796;28;20499;-73
2023/01/02 00:57:11;;;;;;;4.78;2.60;;;;;;;;;;5032347;28;20128;-73
2023/01/02 00:59:39;;;;;;;3.50;2.60;;;;;;;;;;5032423;28;20053;-73
2023/01/02 01:02:06;;;;;;;3.83;2.60;;;;;;;;;;5032426;28;20152;-73
2023/01/02 01:04:33;;;;;;;3.40;2.40;;;;;;;;;;5012564;28;20141;-73
2023/01/02 01:07:00;;;;;;;4.28;2.92;;;;;;;;;;5012684;28;20049;-73
2023/01/02 01:09:27;;;;;;;4.70;2.55;;;;;;;;;;5012530;28;20064;-73
2023/01/02 01:11:55;;;;;;;3.67;2.67;;;;;;;;;;5013731;28;20056;-73
2023/01/02 01:14:22;;;;;;;4.35;2.70;;;;;;;;;;5028367;28;20058;-73
2023/01/02 01:16:51;;;;;;;4.55;2.58;;;;;;;;;;5031244;28;20430;-73
2023/01/02 01:19:18;;;;;;;3.67;2.80;;;;;;;;;;5012644;28;20402;-73
2023/01/02 01:21:45;;;;;;;3.70;2.40;;;;;;;;;;5012662;28;20538;-73
2023/01/02 01:24:12;;;;;;;3.42;2.40;;;;;;;;;;5013240;28;20053;-72
2023/01/02 01:26:39;;;;;;;4.10;2.58;;;;;;;;;;5011980;28;20056;-72
2023/01/02 01:29:06;;;;;;;4.10;2.67;;;;;;;;;;5012168;28;20056;-73
2023/01/02 01:31:33;;;;;;;3.95;2.58;;;;;;;;;;5018707;28;20132;-72
2023/01/02 01:34:02;;;;;;;3.25;2.50;;;;;;;;;;5031407;28;20053;-73
2023/01/02 01:36:29;;;;;;;2.85;2.33;;;;;;;;;;5031198;28;20049;-73
2023/01/02 01:38:56;;;;;;;3.72;2.63;;;14.50;73.60;;;;;;5031995;28;20053;-73
2023/01/02 01:41:24;;;;;;;3.40;2.53;;;14.60;75.90;;;;;;5031607;28;20049;-73
2023/01/02 01:43:52;;;;;;;3.17;2.33;;;;;;;;;;5031560;28;20055;-73
2023/01/02 01:46:22;;;;;;;3.53;2.30;;;14.60;75.90;;;;;;5031598;28;20064;-73
2023/01/02 01:48:54;;;;;;;3.70;2.70;;;14.50;75.90;;;;;;5030672;28;20057;-73
2023/01/02 01:51:23;;;;;;;4.20;2.45;;;;;;;;;;5031757;28;20529;-73
2023/01/02 01:53:50;;;;;;;4.25;2.58;;;;;;;;;;5031361;28;20388;-73
2023/01/02 01:56:17;;;;;;;3.47;2.50;;;;;;;;;;5031722;28;20063;-73
2023/01/02 01:58:44;;;;;;;3.20;2.33;;;;;;;;;;5030495;28;20054;-73
2023/01/02 02:01:12;;;;;;;3.58;2.38;;;;;;;;;;5031518;28;20084;-73
2023/01/02 02:03:39;;;;;;;3.50;2.58;;;;;;;;;;5021556;28;20049;-73
2023/01/02 02:06:06;;;;;;;3.63;2.35;;;;;;;;;;5012717;28;20410;-73
2023/01/02 02:08:36;;;;;;;3.60;2.50;;;14.50;75.60;;;;;;5011633;28;20052;-73
2023/01/02 02:11:03;;;;;;;3.58;2.30;;;;;;;;;;5011925;28;20402;-73
2023/01/02 02:13:30;;;;;;;3.20;2.45;;;;;;;;;;5020593;28;20483;-73
2023/01/02 02:15:59;;;;;;;3.17;2.20;;;;;;;;;;5030985;28;20057;-73
2023/01/02 02:18:34;;;;;;;2.80;2.10;;;14.60;75.90;;;;;;5031538;28;20076;-73
2023/01/02 02:21:06;;;;;;;6.28;2.20;;;14.50;75.90;;;;;;5031374;28;20053;-73
2023/01/02 02:24:12;;;;;;;3.30;2.50;;;14.50;73.80;;;;;;5031105;28;20059;-73
2023/01/02 02:26:41;;;;;;;3.72;2.30;;;;;;;;;;4971242;28;20050;-73
2023/01/02 02:29:39;;;;;;;2.88;2.30;;;;;;;;;;5017914;28;20509;-73
2023/01/02 02:32:08;;;;;;;3.75;2.20;;;;;;;;;;5029652;28;20053;-73
2023/01/02 02:34:37;;;;;;;2.78;2.08;;;14.60;74.20;;;;;;5030601;28;20418;-73
2023/01/02 02:37:06;;;;;;;2.95;2.17;;;14.50;75.90;;;;;;5030426;28;20073;-73
2023/01/02 02:39:35;;;;;;;2.83;2.10;;;;;;;;;;5030783;28;20140;-73
2023/01/02 02:42:03;;;;;;;3.90;2.30;;;;;;;;;;5030826;28;20053;-73
2023/01/02 02:44:32;;;;;;;2.85;2.20;;;;;;;;;;5030636;28;20067;-73
2023/01/02 02:46:59;;;;;;;2.97;2.33;;;;;;;;;;5030137;28;20445;-73
2023/01/02 02:49:31;;;;;;;2.92;2.20;;;;;;;;;;5030488;28;20487;-73
2023/01/02 02:52:00;;;;;;;2.58;2.10;;;14.50;75.90;;;;;;5030811;28;20057;-73
2023/01/02 02:54:28;;;;;;;2.90;2.10;;;;;;;;;;5030208;28;20057;-73
2023/01/02 02:56:55;;;;;;;3.13;2.20;;;;;;;;;;5031841;28;20454;-73
2023/01/02 02:59:22;;;;;;;4.47;2.67;;;;;;;;;;5031851;28;20511;-73
2023/01/02 03:01:49;;;;;;;3.25;2.38;;;;;;;;;;5017483;28;20414;-73
2023/01/02 03:04:17;;;;;;;4.18;2.00;;;;;;;;;;5010731;28;20058;-73
2023/01/02 03:06:58;;;;;;;2.45;1.90;;;;;;;;;;5010936;28;20069;-73
2023/01/02 03:09:27;;;;;;;2.53;2.00;;;14.40;75.90;;;;;;5012037;28;20406;-73
2023/01/02 03:11:56;;;;;;;3.75;2.30;;;;;;;;;;5014961;28;20499;-73
2023/01/02 03:14:28;;;;;;;3.45;2.05;;;14.50;74.40;;;;;;5030180;28;20064;-73
2023/01/02 03:16:55;;;;;;;3.67;2.15;;;;;;;;;;5034400;28;20417;-73
2023/01/02 03:19:24;;;;;;;3.70;2.33;;;14.50;74.20;;;;;;5034193;28;20045;-73
2023/01/02 03:21:53;;;;;;;4.30;2.10;;;;;;;;;;5035492;28;20049;-73
2023/01/02 03:24:21;;;;;;;3.42;2.38;;;;;;;;;;5034313;28;20065;-73
2023/01/02 03:26:50;;;;;;;3.40;2.03;;;14.50;75.70;;;;;;5034001;28;20060;-73
2023/01/02 03:29:17;;;;;;;3.67;2.13;;;;;;;;;;5032113;28;20056;-73
2023/01/02 03:31:45;;;;;;;3.33;2.33;;;;;;;;;;5014736;28;20058;-73
2023/01/02 03:34:13;;;;;;;2.92;2.20;;;14.40;73.90;;;;;;5029990;28;20059;-73
2023/01/02 03:36:41;;;;;;;2.50;1.88;;;;;;;;;;5033550;28;20053;-73
2023/01/02 03:39:09;;;;;;;3.03;2.20;;;14.40;74.30;;;;;;5034020;28;20053;-73
2023/01/02 03:41:38;;;;;;;3.33;2.28;;;;;;;;;;5034226;28;20061;-73
2023/01/02 03:44:05;;;;;;;3.55;2.22;;;;;;;;;;5033281;28;20058;-73
2023/01/02 03:46:33;;;;;;;3.22;2.10;;;;;;;;;;5035079;28;20049;-73
2023/01/02 03:49:01;;;;;;;3.17;2.13;;;;;;;;;;5033612;28;20049;-73
2023/01/02 03:51:28;;;;;;;2.47;2.00;;;;;;;;;;5033558;28;20057;-73
2023/01/02 03:53:55;;;;;;;2.95;2.00;;;;;;;;;;5034869;28;20053;-73
2023/01/02 03:56:23;;;;;;;3.03;2.00;;;;;;;;;;5033615;28;20132;-73
2023/01/02 03:58:53;;;;;;;3.05;1.98;;;14.50;75.90;;;;;;5025240;28;20050;-73
2023/01/02 04:01:22;;;;;;;3.10;2.10;;;;;;;;;;5015058;28;20422;-73
2023/01/02 04:03:50;;;;;;;3.22;2.20;;;;;;;;;;5013709;28;20406;-73
2023/01/02 04:06:17;;;;;;;3.80;1.95;;;;;;;;;;5013873;28;20065;-74
2023/01/02 04:08:45;;;;;;;2.40;1.77;;;;;;;;;;5013919;28;20054;-73
2023/01/02 04:11:12;;;;;;;3.33;2.45;;;;;;;;;;5013874;28;20533;-73
2023/01/02 04:13:39;;;;;;;2.72;2.10;;;;;;;;;;5027056;28;20855;-73
2023/01/02 04:16:09;;;;;;;3.70;2.30;;;;;;;;;;5033278;28;20508;-73
2023/01/02 04:18:38;;;;;;;2.65;1.80;;;14.50;75.90;;;;;;5033499;28;20064;-73
2023/01/02 04:21:06;;;;;;;3.30;2.05;;;;;;;;;;5033946;28;20060;-73
2023/01/02 04:23:36;;;;;;;2.50;1.80;;;14.40;75.70;;;;;;5032869;28;20133;-73
2023/01/02 04:26:04;;;;;;;3.20;2.03;;;14.40;74.60;;;;;;5034300;28;20136;-72
2023/01/02 04:28:31;;;;;;;2.70;2.00;;;14.40;74.90;;;;;;5029554;28;20053;-73
2023/01/02 04:31:00;;;;;;;4.47;2.03;;;;;;;;;;5014543;28;20076;-73
2023/01/02 04:33:29;;;;;;;2.97;1.98;;;;;;;;;;5012888;28;20053;-73
2023/01/02 04:35:56;;;;;;;2.80;1.83;;;;;;;;;;5014170;28;20054;-73
2023/01/02 04:38:23;;;;;;;3.38;1.73;;;;;;;;;;5034011;28;20053;-73
2023/01/02 04:40:50;;;;;;;2.60;1.80;;;;;;;;;;5032442;28;20053;-73
2023/01/02 04:43:18;;;;;;;2.65;2.03;;;;;;;;;;5014286;28;20049;-73
2023/01/02 04:45:45;;;;;;;2.75;1.90;;;;;;;;;;5014268;28;20252;-73
2023/01/02 04:48:12;;;;;;;2.85;2.10;;;;;;;;;;5029593;28;20410;-73
2023/01/02 04:50:40;;;;;;;3.03;1.98;;;;;;;;;;5029608;28;20057;-73
2023/01/02 04:53:08;;;;;;;3.78;1.80;;;;;;;;;;5029222;28;20495;-73
2023/01/02 04:55:35;;;;;;;3.28;2.00;;;;;;;;;;5029627;28;20062;-73
2023/01/02 04:58:02;;;;;;;2.88;2.10;;;;;;;;;;5032645;28;20067;-73
2023/01/02 05:00:29;;;;;;;3.65;1.83;;;;;;;;;;5032792;28;20083;-73
2023/01/02 05:02:56;;;;;;;2.75;2.20;;;;;;;;;;5033072;28;20145;-73
2023/01/02 05:05:23;;;;;;;2.80;2.00;;;;;;;;;;5032736;28;20060;-73
2023/01/02 05:07:52;;;;;;;3.20;2.00;;;;;;;;;;5032362;28;20046;-73
2023/01/02 05:10:19;;;;;;;2.67;2.05;;;;;;;;;;5028393;28;20177;-73
2023/01/02 05:12:46;;;;;;;2.50;1.90;;;;;;;;;;5015398;28;20058;-73
2023/01/02 05:15:13;;;;;;;3.28;2.20;;;;;;;;;;5031866;28;20141;-73
2023/01/02 05:17:41;;;;;;;2.67;1.67;;;14.40;75.70;;;;;;5032344;28;20136;-73
2023/01/02 05:20:09;;;;;;;2.10;1.75;;;14.40;75.80;;;;;;5031776;28;20533;-73
2023/01/02 05:25:24;;;;;;;3.15;1.98;;;;;;;;;;5031241;28;20132;-73
2023/01/02 05:27:53;;;;;;;2.38;1.90;;;;;;;;;;5032922;28;20051;-73
2023/01/02 05:30:20;;;;;;;2.15;1.75;;;;;;;;;;5031720;28;20061;-73
2023/01/02 05:32:47;;;;;;;2.53;2.00;;;;;;;;;;5031066;28;20053;-73
2023/01/02 05:35:14;;;;;;;4.15;2.00;;;;;;;;;;5033253;28;20132;-73
2023/01/02 05:37:41;;;;;;;2.35;2.03;;;;;;;;;;5031187;28;20049;-73
2023/01/02 05:40:09;;;;;;;2.45;1.92;;;;;;;;;;5031366;28;20053;-73
2023/01/02 05:42:37;;;;;;;4.13;2.10;;;;;;;;;;5031529;28;20057;-73
2023/01/02 05:45:04;;;;;;;2.60;1.88;;;;;;;;;;5031808;28;20060;-73
2023/01/02 05:47:31;;;;;;;3.17;1.98;;;;;;;;;;5031420;28;20058;-73
2023/01/02 05:49:58;;;;;;;2.28;1.80;;;;;;;;;;5032469;28;20084;-73
2023/01/02 05:52:26;;;;;;;2.63;1.88;;;;;;;;;;5031559;28;20062;-73
2023/01/02 05:54:53;;;;;;;1.98;1.75;;;;;;;;;;5018347;28;20054;-73
2023/01/02 05:57:20;;;;;;;3.50;1.75;;;;;;;;;;5012129;28;20142;-73
2023/01/02 05:59:48;;;;;;;2.22;1.63;;;;;;;;;;5011528;28;20046;-73
2023/01/02 06:02:15;;;;;;;2.83;1.80;;;;;;;;;;5012683;28;20133;-73
2023/01/02 06:04:42;;;;;;;2.40;1.88;;;;;;;;;;5012692;28;20053;-73
2023/01/02 06:07:09;;;;;;;2.35;1.90;;;;;;;;;;5011828;28;20065;-73
2023/01/02 06:09:36;;;;;;;2.63;1.83;;;;;;;;;;5029038;28;20058;-73
2023/01/02 06:12:03;;;;;;;2.08;1.75;;;;;;;;;;5031019;28;20053;-73
2023/01/02 06:14:30;;;;;;;3.92;1.80;;;;;;;;;;5031358;28;20482;-73
2023/01/02 06:16:59;;;;;;;2.20;1.70;;;;;;;;;;5032246;28;20581;-73
2023/01/02 06:19:26;;;;;;;2.65;2.10;;;;;;;;;;5032527;28;20410;-73
2023/01/02 06:21:53;;;;;;;3.40;1.88;;;;;;;;;;5030966;28;20490;-73
2023/01/02 06:24:20;;;;;;;2.20;1.90;;;;;;;;;;5030600;28;20065;-73
2023/01/02 06:26:47;;;;;;;3.53;1.70;;;;;;;;;;5032145;28;20049;-73
2023/01/02 06:29:14;;;;;;;2.70;1.90;;;;;;;;;;5030947;28;20060;-73
2023/01/02 06:31:41;;;;;;;3.35;1.77;;;;;;;;;;5031138;28;20063;-73
2023/01/02 06:34:10;;;;;;;3.15;2.28;;;;;;;;;;5030673;28;20064;-73
2023/01/02 06:36:38;;;;;;;2.53;1.85;;;;;;;;;;5029989;28;20057;-73
2023/01/02 06:39:05;;;;;;;2.40;1.60;;;;;;;;;;5030894;28;20112;-73
2023/01/02 06:41:32;;;;;;;2.95;1.70;;;;;;;;;;5031208;28;20246;-73
2023/01/02 06:43:59;;;;;;;3.80;1.77;;;;;;;;;;5030431;28;20059;-73
2023/01/02 06:46:26;;;;;;;2.97;1.85;;;;;;;;;;5030853;28;20064;-73
2023/01/02 06:48:53;;;;;;;2.42;1.88;;;;;;;;;;5030751;28;20056;-73
2023/01/02 06:51:22;;;;;;;2.35;1.70;;;;;;;;;;5028272;28;20545;-73
2023/01/02 06:53:49;;;;;;;2.15;1.80;;;;;;;;;;5010727;28;20053;-73
2023/01/02 06:56:17;;;;;;;2.63;1.73;;;14.40;75.90;;;;;;5011154;28;20058;-73
2023/01/02 06:58:44;;;;;;;2.45;2.00;;;;;;;;;;5010964;28;20133;-73
2023/01/02 07:01:12;;;;;;;1.90;1.60;;;14.40;76.00;;;;;;5010888;28;20064;-73
2023/01/02 07:03:39;;;;;;;2.08;1.63;;;;;;;;;;5010405;28;20061;-73
2023/01/02 07:06:07;;;;;;;2.05;1.70;;;;;;;;;;5018213;28;20159;-73
2023/01/02 07:08:35;;;;;;;2.20;1.80;;;;;;;;;;5031434;28;20050;-73
2023/01/02 07:11:09;;;;;;;2.28;1.55;;;;;;;;;;5031819;28;20045;-73
2023/01/02 07:13:36;;;;;;;2.15;1.70;;;;;;;;;;5030443;28;20075;-73
2023/01/02 07:16:04;;;;;;;2.42;1.80;;;;;;;;;;5030679;28;20406;-73
2023/01/02 07:18:31;;;;;;;2.85;1.73;;;;;;;;;;5025756;28;20050;-73
2023/01/02 07:20:58;;;;;;;2.97;1.73;;;;;;;;;;5018407;28;20049;-73
2023/01/02 07:23:25;;;;;;;1.98;1.60;;;;;;;;;;5031101;28;20546;-73
2023/01/02 07:25:55;;;;;;;2.72;1.80;;;;;;;;;;5030408;28;20482;-73
2023/01/02 07:28:22;;;;;;;3.45;1.60;;;;;;;;;;5030517;28;20136;-74
2023/01/02 07:30:49;;;;;;;2.33;1.60;;;;;;;;;;5030046;28;20410;-74
2023/01/02 07:33:16;;;;;;;2.50;1.67;;;;;;;;;;5030413;28;20406;-74
2023/01/02 07:35:44;;;;;;;2.00;1.50;;;;;;;;;;5016617;28;20562;-74
2023/01/02 07:38:11;;;;;;;3.83;1.70;;;;;;;;;;5026273;28;20054;-74
2023/01/02 07:40:38;;;;;;;2.78;1.92;;;;;;;;;;5010448;28;20418;-74
2023/01/02 07:43:06;;;;;;;1.70;1.60;;;;;;;;;;5009971;28;20452;-75
2023/01/02 07:45:34;;;;;;;2.45;1.77;;;;;;;;;;5010454;28;20153;-74
2023/01/02 07:48:01;;;;;;;1.80;1.50;;;;;;;;;;5010454;28;20062;-74
2023/01/02 07:50:28;;;;;;;2.25;1.60;;;;;;;;;;5014845;28;20610;-74
2023/01/02 07:52:55;;;;;;;2.63;1.58;;;;;;;;;;5013720;28;20064;-74
2023/01/02 07:55:22;;;;;;;4.22;1.77;;;;;;;;;;5019190;28;20060;-75
2023/01/02 07:57:49;;;;;;;2.45;1.48;;;;;;;;;;5023249;28;20144;-74
2023/01/02 08:00:18;;;;;;;2.15;1.58;;;;;;;;;;5024342;28;20751;-75
2023/01/02 08:02:48;;;;;;;2.17;1.60;;;;;;;;;;5023213;28;20064;-75
2023/01/02 08:05:15;;;;;;;3.92;1.70;;;;;;;;;;5027357;28;20099;-74
2023/01/02 08:07:43;;;;;;;2.10;1.40;;;;;;;;;;5023956;28;20556;-74
2023/01/02 08:10:10;;;;;;;1.90;1.45;;;;;;;;;;5023303;28;20050;-74
2023/01/02 08:12:37;;;;;;;2.00;1.60;;;;;;;;;;5023622;28;20049;-74
2023/01/02 08:15:05;;;;;;;1.73;1.40;;;;;;;;;;5024791;28;20050;-74
2023/01/02 08:17:33;;;;;;;2.83;1.65;;;;;;;;;;5022648;28;20057;-75
2023/01/02 08:20:00;;;;;;;1.98;1.30;;;;;;;;;;5024692;28;20053;-73
2023/01/02 08:22:27;;;;;;;1.65;1.42;;;;;;;;;;5024136;28;20060;-74
2023/01/02 08:24:54;;;;;;;3.40;1.45;;;;;;;;;;5023255;28;20568;-74
2023/01/02 08:27:21;;;;;;;2.90;1.73;;;;;;;;;;5038282;28;20500;-74
2023/01/02 08:29:49;;;;;;;1.77;1.35;;;;;;;;;;5022675;28;20384;-74
2023/01/02 08:32:16;;;;;;;1.88;1.33;;;;;;;;;;5023755;28;20450;-74
2023/01/02 08:34:45;;;;;;;2.10;1.40;;;;;;;;;;5018622;28;20053;-74
2023/01/02 08:37:12;;;;;;;2.28;1.40;;;;;;;;;;5024621;28;20049;-74
2023/01/02 08:39:39;;;;;;;2.13;1.35;;;;;;;;;;5023928;28;20137;-73
2023/01/02 08:42:06;;;;;;;1.80;1.30;;;;;;;;;;5021200;28;20057;-74
2023/01/02 08:44:34;;;;;;;2.90;1.20;;;;;;;;;;5029440;28;20057;-74
2023/01/02 08:47:02;;;;;;;1.45;1.20;;;;;;;;;;5032235;28;20140;-74
2023/01/02 08:49:29;;;;;;;1.67;1.30;;;;;;;;;;5032698;28;20136;-74
2023/01/02 08:51:57;;;;;;;1.30;1.20;;;;;;;;;;5032682;28;20136;-74
2023/01/02 08:54:24;;;;;;;1.65;1.20;;;;;;;;;;5031326;28;20559;-74
2023/01/02 08:56:52;;;;;;;2.30;1.20;;;;;;;;;;5012963;28;20426;-74
2023/01/02 08:59:19;;;;;;;2.38;1.40;;;;;;;;;;5012907;28;20152;-74
2023/01/02 09:01:46;;;;;;;1.65;1.25;;;;;;;;;;5013819;28;20056;-74
2023/01/02 09:04:13;;;;;;;1.65;1.17;;;;;;;;;;5012844;28;20136;-74
2023/01/02 09:06:40;;;;;;;1.45;1.27;;;;;;;;;;5012922;28;20144;-74
2023/01/02 09:09:08;;;;;;;1.52;1.10;;;;;;;;;;5018362;28;20071;-74
2023/01/02 09:11:36;;;;;;;1.50;1.13;;;15.60;73.00;;;;;;5023813;28;20046;-74
2023/01/02 09:14:03;;;;;;;1.45;1.27;;;;;;;;;;5025656;28;20417;-74
2023/01/02 09:16:30;;;;;;;1.80;1.25;;;;;;;;;;5032485;28;20067;-74
2023/01/02 09:18:57;;;;;;;1.17;1.08;;;;;;;;;;5031813;28;20133;-74
2023/01/02 09:21:24;;;;;;;10.18;1.40;;;;;;;;;;5031204;28;20053;-74
2023/01/02 09:23:51;;;;;;;1.98;1.10;;;;;;;;;;5024739;28;20132;-74
2023/01/02 09:26:19;;;;;;;2.03;1.25;;;15.60;73.80;;;;;;5031345;28;20060;-74
2023/01/02 09:28:46;;;;;;;1.40;1.27;;;;;;;;;;5032208;28;20061;-74
2023/01/02 09:31:14;;;;;;;1.60;1.20;;;;;;;;;;5031749;28;20140;-74
2023/01/02 09:33:41;;;;;;;1.83;1.20;;;;;;;;;;5031597;28;20125;-74
2023/01/02 09:36:09;;;;;;;1.30;1.20;;;15.60;71.70;;;;;;5031349;28;20140;-75
2023/01/02 09:38:36;;;;;;;1.58;1.02;;;;;;;;;;5022818;28;20050;-75
2023/01/02 09:41:09;;;;;;;3.20;1.30;;;;;;;;;;5020891;28;20088;-74
2023/01/02 09:43:39;;;;;;;1.92;1.23;;;;;;;;;;5021100;28;20055;-76
2023/01/02 09:46:06;;;;;;;3.50;1.60;;;;;;;;;;5032320;28;20488;-76
2023/01/02 09:48:35;;;;;;;4.22;1.40;;;;;;;;;;5032041;28;20512;-76
2023/01/02 09:51:02;;;;;;;5.97;1.55;;;;;;;;;;5031737;28;20056;-75
2023/01/02 09:53:29;;;;;;;4.03;1.48;;;;;;;;;;5031674;28;20053;-75
2023/01/02 09:55:57;;;;;;;2.90;1.20;;;15.40;74.00;;;;;;5031477;28;20049;-75
2023/01/02 09:58:27;;;;;;;5.10;1.30;;;;;;;;;;5032714;28;20415;-75
2023/01/02 10:00:56;;;;;;;5.38;1.30;;;;;;;;;;5032137;28;20137;-74
2023/01/02 10:03:24;;;;;;;4.75;1.40;;;;;;;;;;5032114;28;20045;-75
2023/01/02 10:06:00;;;;;;;1.65;1.15;;;15.50;74.30;;;;;;5032158;28;20079;-75
2023/01/02 10:08:31;;;;;;;3.92;1.38;;;15.40;72.10;;;;;;5030452;28;20068;-75
2023/01/02 10:11:03;;;;;;;4.50;1.52;;;15.30;74.20;;;;;;5030528;28;20128;-75
2023/01/02 10:13:32;;;;;;;5.28;1.60;;;15.40;74.30;;;;;;5031343;28;20053;-74
2023/01/02 10:16:01;;;;;;;4.13;1.50;;;;;;;;;;5027956;28;20053;-74
2023/01/02 10:18:28;;;;;;;5.30;1.45;;;;;;;;;;5029667;28;20059;-74
2023/01/02 10:20:57;;;;;;;4.22;1.48;;;15.30;72.10;;;;;;5029851;28;20053;-74
2023/01/02 10:23:24;;;;;;;6.03;1.70;;;;;;;;;;5030859;28;20060;-74
2023/01/02 10:25:52;;;;;;;6.55;1.92;;;;;;;;;;5031403;28;20061;-74
2023/01/02 10:28:20;;;;;;;4.65;1.40;;;;;;;;;;5029987;28;20053;-74
2023/01/02 10:30:48;;;;;;;3.13;1.70;;;;;;;;;;5031251;28;20140;-74
2023/01/02 10:33:17;;;;;;;2.58;1.50;;;;;;;;;;5030639;28;20051;-74
2023/01/02 10:35:44;;;;;;;3.35;1.80;;;;;;;;;;5029967;28;20047;-74
2023/01/02 10:38:11;;;;;;;4.78;1.80;;;;;;;;;;5025863;28;20068;-74
2023/01/02 10:40:38;;;;;;;4.75;1.80;;;;;;;;;;5010285;28;20045;-74
2023/01/02 10:43:06;;;;;;;7.82;1.70;;;;;;;;;;5010158;28;20065;-74
2023/01/02 10:45:33;;;;;;;4.03;1.60;;;;;;;;;;5009900;28;20054;-74
2023/01/02 10:48:00;;;;;;;4.32;1.55;;;;;;;;;;5010348;28;20053;-74
2023/01/02 10:50:28;;;;;;;4.38;1.80;;;;;;;;;;5015623;28;20049;-74
2023/01/02 10:53:05;;;;;;;5.63;1.75;;;15.20;74.50;;;;;;5030047;28;20053;-74
2023/01/02 10:55:33;;;;;;;4.03;1.58;;;;;;;;;;5029756;28;20472;-74
2023/01/02 10:58:03;;;;;;;4.28;1.85;;;;;;;;;;5029621;28;20124;-74
2023/01/02 11:00:31;;;;;;;3.22;1.50;;;;;;;;;;5029857;28;20059;-74
2023/01/02 11:02:58;;;;;;;2.22;1.38;;;;;;;;;;5025796;28;20057;-74
2023/01/02 11:05:26;;;;;;;2.92;1.40;;;;;;;;;;5029224;28;20060;-74
2023/01/02 11:07:54;;;;;;;2.85;1.42;;;;;;;;;;5029154;28;20049;-74
2023/01/02 11:10:22;;;;;;;3.13;1.55;;;;;;;;;;5029751;28;20410;-74
2023/01/02 11:12:49;;;;;;;4.93;1.60;;;;;;;;;;5030821;28;20478;-75
2023/01/02 11:15:22;;;;;;;4.13;1.42;;;15.10;74.50;;;;;;5030952;28;20477;-74
2023/01/02 11:17:49;;;;;;;4.28;1.60;;;;;;;;;;5029389;28;20054;-74
2023/01/02 11:20:19;;;;;;;2.30;1.40;;;;;;;;;;5029329;28;20050;-75
2023/01/02 11:22:46;;;;;;;4.28;1.40;;;;;;;;;;5028139;28;20724;-75
2023/01/02 11:25:20;;;;;;;3.67;1.50;;;;;;;;;;5028368;28;20440;-75
2023/01/02 11:27:48;;;;;;;4.63;1.70;;;;;;;;;;5025297;28;20408;-74
2023/01/02 11:30:29;;;;;;;4.20;1.60;;;15.10;74.80;;;;;;5024941;28;20422;-74
2023/01/02 11:33:03;;;;;;;3.88;1.85;;;;;;;;;;5024097;28;20059;-74
2023/01/02 11:35:36;;;;;;;3.65;1.52;;;15.10;74.70;;;;;;5022174;28;20053;-74
2023/01/02 11:38:03;;;;;;;4.43;1.58;;;;;;;;;;5025941;28;20100;-74
2023/01/02 11:40:32;;;;;;;2.50;1.42;;;;;;;;;;5023813;28;20121;-74
2023/01/02 11:45:46;;;;;;;3.25;1.52;;;;;;;;;;5047661;28;20053;-74
2023/01/02 11:48:14;;;;;;;5.03;1.60;;;;;;;;;;5025257;28;20696;-74
2023/01/02 11:50:42;;;;;;;2.60;1.60;;;15.00;74.50;;;;;;5025137;28;20054;-75
2023/01/02 11:53:09;;;;;;;2.05;1.27;;;;;;;;;;5025876;28;20045;-75
2023/01/02 11:55:41;;;;;;;4.07;1.52;;;15.10;72.50;;;;;;5029656;28;20049;-74
2023/01/02 11:58:15;;;;;;;3.72;1.88;;;15.10;74.60;;;;;;5030502;28;20045;-74
2023/01/02 12:00:43;;;;;;;5.22;1.60;;;;;;;;;;5033221;28;20506;-74
2023/01/02 12:03:13;;;;;;;4.50;1.50;;;15.00;74.50;;;;;;5024754;28;20506;-74
2023/01/02 12:05:47;;;;;;;1.60;1.23;;;15.10;74.50;;;;;;5033288;28;20692;-74
2023/01/02 12:08:15;;;;;;;3.75;1.40;;;;;;;;;;5013244;28;20049;-76
2023/01/02 12:10:49;;;;;;;2.28;1.30;;;15.00;74.60;;;;;;5013165;28;20125;-74
2023/01/02 12:13:23;;;;;;;4.97;1.40;;;;;;;;;;5012951;28;20054;-74
2023/01/02 12:16:12;;;;;;;2.97;1.45;;;15.10;74.60;;;;;;5019072;28;20137;-74
2023/01/02 12:18:48;;;;;;;2.40;1.45;;;;;;;;;;5032650;28;20478;-74
2023/01/02 12:21:16;;;;;;;3.92;1.60;;;;;;;;;;5032765;28;20056;-74
2023/01/02 12:23:51;;;;;;;2.80;1.52;;;;;;;;;;5032804;28;20140;-73
2023/01/02 12:26:19;;;;;;;;;;;;;;;;;;5032911;28;20138;-74
2023/01/02 12:28:54;;;;;;;3.13;1.30;;;;;;;;;;5032629;28;19960;-74
2023/01/02 12:31:25;;;;;;;3.63;1.60;;;;;;;;;;5032497;28;20054;-74
2023/01/02 12:33:53;;;;;;;3.83;1.83;;;;;;;;;;5032944;28;20429;-74
2023/01/02 12:36:23;;;;;;;3.05;1.58;;;;;;;;;;5032455;28;20654;-74
2023/01/02 12:39:02;;;;;;;3.72;1.45;;;15.00;75.00;;;;;;5026581;28;20402;-74
2023/01/02 12:41:29;;;;;;;2.63;1.40;;;;;;;;;;5012424;28;20507;-74
2023/01/02 12:44:05;;;;;;;3.30;1.60;;;;;;;;;;5012698;28;20053;-74
2023/01/02 12:46:44;;;;;;;2.50;1.20;;;14.90;75.00;;;;;;5013014;28;20058;-73
2023/01/02 12:49:17;;;;;;;2.40;1.40;;;;;;;;;;5013250;28;20058;-75
2023/01/02 12:51:46;;;;;;;2.25;1.48;;;;;;;;;;5012986;28;20045;-74
2023/01/02 12:54:24;;;;;;;2.67;1.30;;;14.90;75.20;;;;;;5013570;28;20049;-74
2023/01/02 12:56:53;;;;;;;2.97;1.40;;;;;;;;;;5012163;28;20062;-74
2023/01/02 12:59:33;;;;;;;2.92;1.42;;;14.90;73.90;;;;;;5014420;28;20129;-74
2023/01/02 13:02:02;;;;;;;4.95;1.40;;;14.80;74.30;;;;;;5013455;28;20132;-74
2023/01/02 13:04:29;;;;;;;2.97;1.40;;;;;;;;;;5013255;28;20050;-74
2023/01/02 13:06:57;;;;;;;2.22;1.15;;;;;;;;;;5021492;28;20053;-74
2023/01/02 13:09:26;;;;;;;2.80;1.30;;;;;;;;;;5013125;28;20058;-74
2023/01/02 13:11:59;;;;;;;2.85;1.30;;;14.80;75.20;;;;;;5013052;28;20050;-74
2023/01/02 13:14:31;;;;;;;1.95;1.40;;;14.90;75.30;;;;;;5029656;28;20132;-74
2023/01/02 13:17:00;;;;;;;4.57;1.40;;;;;;;;;;5033125;28;20402;-74
2023/01/02 13:19:30;;;;;;;4.55;1.70;;;;;;;;;;5032344;28;20055;-74
2023/01/02 13:21:59;;;;;;;2.60;1.30;;;14.90;75.10;;;;;;5032685;28;20474;-74
2023/01/02 13:24:26;;;;;;;3.80;1.48;;;;;;;;;;5032448;28;20059;-74
2023/01/02 13:26:53;;;;;;;2.95;1.55;;;;;;;;;;5032901;28;20065;-74
2023/01/02 13:29:22;;;;;;;4.05;1.52;;;14.80;75.10;;;;;;5033686;28;20492;-74
2023/01/02 13:31:52;;;;;;;4.95;1.60;;;;;;;;;;5032588;28;20500;-74
2023/01/02 13:34:20;;;;;;;3.25;1.50;;;;;;;;;;5033152;28;20493;-74
2023/01/02 13:36:47;;;;;;;2.33;1.52;;;;;;;;;;5032132;28;20064;-74
2023/01/02 13:39:16;;;;;;;2.42;1.58;;;;;;;;;;5032754;28;20071;-74
2023/01/02 13:44:31;;;;;;;2.80;1.85;;;;;;;;;;5031576;28;20437;-74
2023/01/02 13:47:00;;;;;;;4.25;2.03;;;;;;;;;;5032373;28;20059;-74
2023/01/02 13:49:27;;;;;;;3.35;1.50;;;;;;;;;;5023598;28;20081;-74
2023/01/02 13:51:54;;;;;;;2.63;1.67;;;;;;;;;;5012387;28;20085;-74
2023/01/02 13:54:21;;;;;;;2.38;1.52;;;;;;;;;;5011855;28;20060;-74
2023/01/02 13:57:07;;;;;;;3.17;1.80;;;;;;;;;;5029620;28;20128;-76
2023/01/02 13:59:34;;;;;;;2.78;1.80;;;;;;;;;;5031778;28;20049;-75
2023/01/02 14:02:15;;;;;;;2.28;1.65;;;;;;;;;;5032012;28;20056;-74
2023/01/02 14:04:43;;;;;;;4.35;1.67;;;;;;;;;;5022701;28;20545;-74
2023/01/02 14:07:37;;;;;;;3.55;1.90;;;;;;;;;;5023468;28;20414;-74
2023/01/02 14:10:24;;;;;;;3.47;1.73;;;15.00;74.90;;;;;;5047856;28;20128;-74
2023/01/02 14:12:53;;;;;;;2.65;1.67;;;;;;;;;;5013957;28;20073;-74
2023/01/02 14:15:20;;;;;;;2.78;1.70;;;;;;;;;;5014276;28;20062;-74
2023/01/02 14:17:52;;;;;;;2.95;1.70;;;15.10;74.90;;;;;;5018658;28;20068;-74
2023/01/02 14:20:23;;;;;;;2.38;1.45;;;15.00;74.50;;;;;;5026098;28;20045;-74
2023/01/02 14:22:50;;;;;;;3.28;1.75;;;15.10;74.20;;;;;;5031222;28;20041;-74
2023/01/02 14:25:18;;;;;;;2.65;1.65;;;;;;;;;;5030831;28;20049;-74
2023/01/02 14:27:48;;;;;;;2.80;1.85;;;;;;;;;;5016747;28;20049;-74
2023/01/02 14:30:15;;;;;;;3.35;1.95;;;;;;;;;;5031379;28;20140;-73
2023/01/02 14:32:43;;;;;;;2.88;1.70;;;;;;;;;;5022160;28;20128;-74
2023/01/02 14:35:24;;;;;;;2.92;1.83;;;;;;;;;;5030648;28;20111;-74
2023/01/02 14:37:52;;;;;;;2.20;1.55;;;;;;;;;;5021410;28;20060;-74